Chantaco — FMLM — position and weather

sailwx.info

Track history (hours):
 
Tides and Currents Weather Stations Pressure Air Temp Water Temp Dewpoint Dewpoint Depression Visibility Wind Speed Wind Dir Waves Ship Positions

Chantaco

Last reported at 2014-Oct-26 08:33 UTC. Time now 2014-Oct-26 09:35 UTC.
Position N 56°02' W 003°41'.

Length 143 m; draft 6.5 m.

Type: Tanker. MMSI: 228330700.

Date/timePositionNaut miles runAvg speedWind from/ knotsBaromVisibWave heightAir tempDewpointWater temp
2014-Oct-26 08:33N 56°02' W 003°41'0 0.0
2014-Oct-26 07:33N 56°02' W 003°41'0 0.0
2014-Oct-26 06:33N 56°02' W 003°41'0 0.0
2014-Oct-26 05:33N 56°02' W 003°41'0 0.0
2014-Oct-26 04:33N 56°02' W 003°41'0 0.0
2014-Oct-26 03:33N 56°02' W 003°41'0 0.0
2014-Oct-26 02:33N 56°02' W 003°41'0 0.0
2014-Oct-26 01:33N 56°02' W 003°41'0 0.0
2014-Oct-26 00:33N 56°02' W 003°41'0 0.0
2014-Oct-25 23:33N 56°02' W 003°41'0 0.0
2014-Oct-25 22:33N 56°02' W 003°41'0 0.0
2014-Oct-25 21:33N 56°02' W 003°41'0 0.0
2014-Oct-25 20:33N 56°02' W 003°41'0 0.0
2014-Oct-25 19:33N 56°02' W 003°41'0 0.0
2014-Oct-25 18:33N 56°02' W 003°41'0 0.0
2014-Oct-25 17:33N 56°02' W 003°41'0 0.0
2014-Oct-25 16:33N 56°02' W 003°41'0 0.0
2014-Oct-25 15:33N 56°02' W 003°41'0 0.0
2014-Oct-25 14:33N 56°02' W 003°41'0 0.3
2014-Oct-25 13:33N 56°02' W 003°41'6 5.9
2014-Oct-25 12:33N 56°02' W 003°31'10 9.6
2014-Oct-25 11:33N 56°02' W 003°13'6 5.4
2014-Oct-25 10:32N 56°05' W 003°04'0 0.0
2014-Oct-25 09:32N 56°05' W 003°04'0 0.0
2014-Oct-25 08:32N 56°05' W 003°04'0 0.0
2014-Oct-25 07:32N 56°05' W 003°04'0 0.0
2014-Oct-25 06:32N 56°05' W 003°04'0 0.0
2014-Oct-25 05:32N 56°05' W 003°04'0 0.0
2014-Oct-25 04:32N 56°05' W 003°04'0 0.0
2014-Oct-25 03:22N 56°05' W 003°04'0 0.0
2014-Oct-25 02:22N 56°05' W 003°04'0 0.0
2014-Oct-25 01:31N 56°05' W 003°04'1 1.2
2014-Oct-25 00:33N 56°04' W 003°06'1 1.1
2014-Oct-24 23:33N 56°05' W 003°05'0 0.0
2014-Oct-24 22:33N 56°05' W 003°05'0 0.0
2014-Oct-24 21:33N 56°05' W 003°04'0 0.0
2014-Oct-24 20:33N 56°05' W 003°04'0 0.0
2014-Oct-24 19:33N 56°05' W 003°04'0 0.0
2014-Oct-24 18:33N 56°05' W 003°04'0 0.0
2014-Oct-24 17:33N 56°05' W 003°04'2 1.5
2014-Oct-24 16:34N 56°05' W 003°02'8 8.4
2014-Oct-24 15:33N 56°07' W 002°47'9 8.6
2014-Oct-24 14:33N 56°07' W 002°32'8 8.3
2014-Oct-24 13:34N 56°04' W 002°18'9 8.5
2014-Oct-24 12:34N 55°60' W 002°05'9 8.7
2014-Oct-24 11:33N 55°55' W 001°52'5310.6
2014-Oct-24 06:33N 55°14' W 000°51'9 9.2
2014-Oct-24 05:33N 55°06' W 000°43'9 8.9
2014-Oct-24 04:33N 54°59' W 000°35'9 8.3
2014-Oct-24 03:29N 54°51' W 000°27'8 8.3
2014-Oct-24 02:33N 54°44' W 000°20'9 8.5
2014-Oct-24 01:33N 54°37' W 000°13'8 8.1
2014-Oct-24 00:33N 54°30' W 000°05'9 9.4
2014-Oct-23 23:33N 54°22' E 000°02'1110.6
2014-Oct-23 22:34N 54°12' E 000°09'1111.2
2014-Oct-23 21:33N 54°02' E 000°16'1111.1
2014-Oct-23 20:34N 53°51' E 000°23'1110.5
2014-Oct-23 19:33N 53°42' E 000°31'10 9.8
2014-Oct-23 18:33N 53°34' E 000°41'29 9.1
2014-Oct-23 15:21N 53°14' E 001°16'911.1
2014-Oct-23 14:33N 53°06' E 001°24'1111.3
2014-Oct-23 13:33N 52°57' E 001°35'1211.8
2014-Oct-23 12:33N 52°50' E 001°50'1010.1
2014-Oct-23 11:32N 52°43' E 002°02'9 9.3
2014-Oct-23 10:33N 52°35' E 002°10'8 8.0
2014-Oct-23 09:33N 52°27' E 002°14'42 8.2
2014-Oct-23 04:23N 51°51' E 002°49'9 9.8
2014-Oct-23 03:30N 51°47' E 003°02'9 9.3
2014-Oct-23 02:29N 51°44' E 003°16'1010.3
2014-Oct-23 01:33N 51°35' E 003°24'1313.1
2014-Oct-23 00:33N 51°25' E 003°37'1110.6
2014-Oct-22 23:33N 51°21' E 003°53'6 6.4
2014-Oct-22 22:34N 51°23' E 004°03'9 9.1
2014-Oct-22 21:34N 51°21' E 004°17'0 0.0
2014-Oct-22 20:33N 51°21' E 004°17'1 0.7
2014-Oct-22 19:33N 51°20' E 004°18'1 0.3
2014-Oct-22 16:27N 51°19' E 004°18'0 0.0
2014-Oct-22 13:30N 51°19' E 004°18'0 0.0
2014-Oct-22 00:21N 51°19' E 004°18'0 0.0
2014-Oct-21 21:20N 51°20' E 004°18'0 0.0
2014-Oct-21 06:26N 51°19' E 004°18'0 0.0
2014-Oct-21 03:29N 51°19' E 004°18'0 0.0
2014-Oct-21 02:23N 51°20' E 004°18'0 0.0
2014-Oct-20 19:23N 51°19' E 004°18'0 0.0
2014-Oct-20 18:32N 51°19' E 004°18'0 0.0
2014-Oct-20 17:26N 51°20' E 004°18'0 0.2
2014-Oct-20 15:33N 51°20' E 004°18'1 1.1
2014-Oct-20 14:33N 51°21' E 004°17'6 6.1
2014-Oct-20 13:33N 51°22' E 004°08'7 7.2
2014-Oct-20 12:33N 51°22' E 003°56'1010.2
2014-Oct-20 11:34N 51°26' E 003°41'9 8.8
2014-Oct-20 10:33N 51°25' E 003°27'1413.6
2014-Oct-20 09:33N 51°24' E 003°05'1413.5
2014-Oct-20 08:32N 51°22' E 002°43'1212.2
2014-Oct-20 07:33N 51°20' E 002°24'1212.4
2014-Oct-20 06:33N 51°14' E 002°07'1211.7
2014-Oct-20 05:33N 51°08' E 001°51'1111.0
2014-Oct-20 04:33N 51°00' E 001°39'1111.0
2014-Oct-20 03:33N 50°52' E 001°28'1211.6
2014-Oct-20 02:33N 50°42' E 001°19'8012.7
2014-Oct-19 20:16N 49°42' W 000°04'913.1
2014-Oct-19 19:33N 49°33' W 000°00'8 8.1
2014-Oct-19 18:33N 49°29' E 000°10'1 0.5
2014-Oct-19 17:24N 49°29' E 000°11'0 0.0
2014-Oct-19 15:12N 49°29' E 000°11'0 0.0
2014-Oct-19 14:30N 49°29' E 000°11'0 0.0
2014-Oct-19 13:24N 49°29' E 000°11'0 0.0
2014-Oct-19 12:33N 49°29' E 000°11'0 0.0
2014-Oct-19 11:18N 49°29' E 000°11'0 0.0
2014-Oct-19 09:21N 49°29' E 000°11'0 0.0
2014-Oct-19 08:30N 49°29' E 000°11'0 0.0
2014-Oct-19 07:18N 49°29' E 000°11'0 0.0
2014-Oct-19 06:30N 49°29' E 000°11'0 0.0
2014-Oct-19 05:30N 49°29' E 000°11'0 0.0
2014-Oct-19 04:30N 49°29' E 000°11'0 0.0
2014-Oct-19 03:24N 49°29' E 000°11'0 0.0
2014-Oct-19 02:12N 49°29' E 000°11'0 0.0
2014-Oct-19 01:30N 49°29' E 000°11'0 0.0
2014-Oct-19 00:30N 49°29' E 000°11'0 0.0
2014-Oct-18 23:18N 49°29' E 000°11'0 0.0
2014-Oct-18 21:29N 49°29' E 000°11'0 0.0
2014-Oct-18 20:17N 49°29' E 000°11'0 0.0
2014-Oct-18 19:32N 49°29' E 000°11'0 0.0
2014-Oct-18 18:29N 49°29' E 000°11'0 0.0
2014-Oct-18 17:05N 49°29' E 000°11'0 0.0
2014-Oct-18 16:29N 49°29' E 000°11'0 0.0
2014-Oct-18 14:26N 49°29' E 000°11'0 0.0
2014-Oct-18 13:29N 49°29' E 000°11'0 0.0
2014-Oct-18 12:17N 49°29' E 000°11'0 0.0
2014-Oct-18 11:29N 49°29' E 000°11'0 0.0
2014-Oct-18 10:05N 49°29' E 000°11'0 0.0
2014-Oct-18 09:29N 49°29' E 000°11'0 0.0
2014-Oct-18 08:11N 49°29' E 000°11'0 0.0
2014-Oct-18 07:32N 49°29' E 000°11'0 0.0
2014-Oct-18 06:23N 49°29' E 000°11'0 0.0
2014-Oct-18 05:32N 49°29' E 000°11'0 0.0
2014-Oct-18 04:29N 49°29' E 000°11'0 0.0
2014-Oct-18 03:29N 49°29' E 000°11'0 0.0
2014-Oct-18 02:23N 49°29' E 000°11'0 0.0
2014-Oct-18 01:11N 49°29' E 000°11'0 0.0
2014-Oct-18 00:26N 49°29' E 000°11'0 0.0
2014-Oct-17 23:29N 49°29' E 000°11'0 0.0
2014-Oct-17 22:23N 49°29' E 000°11'0 0.0
2014-Oct-17 21:29N 49°29' E 000°11'0 0.0
2014-Oct-17 20:23N 49°29' E 000°11'0 0.0
2014-Oct-17 19:32N 49°29' E 000°11'0 0.0
2014-Oct-17 17:17N 49°29' E 000°11'0 0.0
2014-Oct-17 16:23N 49°29' E 000°11'1 0.7
2014-Oct-17 15:33N 49°29' E 000°10'0 0.5
2014-Oct-17 14:34N 49°28' E 000°10'5 4.8
2014-Oct-17 13:33N 49°30' E 000°03'10 9.8
2014-Oct-17 12:33N 49°38' W 000°05'1312.7
2014-Oct-17 11:34N 49°49' E 000°04'3113.3
2014-Oct-17 09:13N 50°15' E 000°33'812.8
2014-Oct-17 08:33N 50°22' E 000°39'1312.6
2014-Oct-17 07:33N 50°35' E 000°38'1312.5
2014-Oct-17 06:33N 50°43' E 000°54'1412.0
2014-Oct-17 05:23N 50°52' E 001°11'1011.8
2014-Oct-17 04:32N 50°58' E 001°23'1212.5
2014-Oct-17 03:33N 51°08' E 001°35'1313.1
2014-Oct-17 02:34N 51°20' E 001°43'1413.6
2014-Oct-17 01:34N 51°33' E 001°44'1313.4
2014-Oct-17 00:33N 51°47' E 001°44'1313.0
2014-Oct-16 23:34N 51°60' E 001°46'1312.9
2014-Oct-16 22:34N 52°12' E 001°49'1212.4
2014-Oct-16 21:33N 52°25' E 001°53'1212.1
2014-Oct-16 20:34N 52°37' E 001°56'1111.0
2014-Oct-16 19:33N 52°47' E 001°50'1212.3
2014-Oct-16 18:33N 52°54' E 001°34'1212.4
2014-Oct-16 17:33N 53°00' E 001°15'3012.9
2014-Oct-16 15:13N 53°20' E 000°38'913.3
2014-Oct-16 14:33N 53°28' E 000°30'1211.6
2014-Oct-16 13:34N 53°32' E 000°13'1413.8
2014-Oct-16 12:33N 53°38' W 000°09'1 0.5
2014-Oct-16 11:31N 53°38' W 000°10'0 0.0
2014-Oct-16 10:31N 53°38' W 000°10'0 0.0
2014-Oct-16 09:31N 53°38' W 000°10'  
Track history (hours):
 
Tides and Currents Weather Stations Pressure Air Temp Water Temp Dewpoint Dewpoint Depression Visibility Wind Speed Wind Dir Waves Ship Positions

Chantaco

Last reported at 2014-Oct-26 08:33 UTC. Time now 2014-Oct-26 09:35 UTC.
Position N 56°02' W 003°41'.

Length 143 m; draft 6.5 m.

Type: Tanker. MMSI: 228330700.

Date/timePositionNaut miles runAvg speedWind from/ knotsBaromVisibWave heightAir tempDewpointWater temp
2014-Oct-26 08:33N 56°02' W 003°41'0 0.0
2014-Oct-26 07:33N 56°02' W 003°41'0 0.0
2014-Oct-26 06:33N 56°02' W 003°41'0 0.0
2014-Oct-26 05:33N 56°02' W 003°41'0 0.0
2014-Oct-26 04:33N 56°02' W 003°41'0 0.0
2014-Oct-26 03:33N 56°02' W 003°41'0 0.0
2014-Oct-26 02:33N 56°02' W 003°41'0 0.0
2014-Oct-26 01:33N 56°02' W 003°41'0 0.0
2014-Oct-26 00:33N 56°02' W 003°41'0 0.0
2014-Oct-25 23:33N 56°02' W 003°41'0 0.0
2014-Oct-25 22:33N 56°02' W 003°41'0 0.0
2014-Oct-25 21:33N 56°02' W 003°41'0 0.0
2014-Oct-25 20:33N 56°02' W 003°41'0 0.0
2014-Oct-25 19:33N 56°02' W 003°41'0 0.0
2014-Oct-25 18:33N 56°02' W 003°41'0 0.0
2014-Oct-25 17:33N 56°02' W 003°41'0 0.0
2014-Oct-25 16:33N 56°02' W 003°41'0 0.0
2014-Oct-25 15:33N 56°02' W 003°41'0 0.0
2014-Oct-25 14:33N 56°02' W 003°41'0 0.3
2014-Oct-25 13:33N 56°02' W 003°41'6 5.9
2014-Oct-25 12:33N 56°02' W 003°31'10 9.6
2014-Oct-25 11:33N 56°02' W 003°13'6 5.4
2014-Oct-25 10:32N 56°05' W 003°04'0 0.0
2014-Oct-25 09:32N 56°05' W 003°04'0 0.0
2014-Oct-25 08:32N 56°05' W 003°04'0 0.0
2014-Oct-25 07:32N 56°05' W 003°04'0 0.0
2014-Oct-25 06:32N 56°05' W 003°04'0 0.0
2014-Oct-25 05:32N 56°05' W 003°04'0 0.0
2014-Oct-25 04:32N 56°05' W 003°04'0 0.0
2014-Oct-25 03:22N 56°05' W 003°04'0 0.0
2014-Oct-25 02:22N 56°05' W 003°04'0 0.0
2014-Oct-25 01:31N 56°05' W 003°04'1 1.2
2014-Oct-25 00:33N 56°04' W 003°06'1 1.1
2014-Oct-24 23:33N 56°05' W 003°05'0 0.0
2014-Oct-24 22:33N 56°05' W 003°05'0 0.0
2014-Oct-24 21:33N 56°05' W 003°04'0 0.0
2014-Oct-24 20:33N 56°05' W 003°04'0 0.0
2014-Oct-24 19:33N 56°05' W 003°04'0 0.0
2014-Oct-24 18:33N 56°05' W 003°04'0 0.0
2014-Oct-24 17:33N 56°05' W 003°04'2 1.5
2014-Oct-24 16:34N 56°05' W 003°02'8 8.4
2014-Oct-24 15:33N 56°07' W 002°47'9 8.6
2014-Oct-24 14:33N 56°07' W 002°32'8 8.3
2014-Oct-24 13:34N 56°04' W 002°18'9 8.5
2014-Oct-24 12:34N 55°60' W 002°05'9 8.7
2014-Oct-24 11:33N 55°55' W 001°52'5310.6
2014-Oct-24 06:33N 55°14' W 000°51'9 9.2
2014-Oct-24 05:33N 55°06' W 000°43'9 8.9
2014-Oct-24 04:33N 54°59' W 000°35'9 8.3
2014-Oct-24 03:29N 54°51' W 000°27'8 8.3
2014-Oct-24 02:33N 54°44' W 000°20'9 8.5
2014-Oct-24 01:33N 54°37' W 000°13'8 8.1
2014-Oct-24 00:33N 54°30' W 000°05'9 9.4
2014-Oct-23 23:33N 54°22' E 000°02'1110.6
2014-Oct-23 22:34N 54°12' E 000°09'1111.2
2014-Oct-23 21:33N 54°02' E 000°16'1111.1
2014-Oct-23 20:34N 53°51' E 000°23'1110.5
2014-Oct-23 19:33N 53°42' E 000°31'10 9.8
2014-Oct-23 18:33N 53°34' E 000°41'29 9.1
2014-Oct-23 15:21N 53°14' E 001°16'911.1
2014-Oct-23 14:33N 53°06' E 001°24'1111.3
2014-Oct-23 13:33N 52°57' E 001°35'1211.8
2014-Oct-23 12:33N 52°50' E 001°50'1010.1
2014-Oct-23 11:32N 52°43' E 002°02'9 9.3
2014-Oct-23 10:33N 52°35' E 002°10'8 8.0
2014-Oct-23 09:33N 52°27' E 002°14'42 8.2
2014-Oct-23 04:23N 51°51' E 002°49'9 9.8
2014-Oct-23 03:30N 51°47' E 003°02'9 9.3
2014-Oct-23 02:29N 51°44' E 003°16'1010.3
2014-Oct-23 01:33N 51°35' E 003°24'1313.1
2014-Oct-23 00:33N 51°25' E 003°37'1110.6
2014-Oct-22 23:33N 51°21' E 003°53'6 6.4
2014-Oct-22 22:34N 51°23' E 004°03'9 9.1
2014-Oct-22 21:34N 51°21' E 004°17'0 0.0
2014-Oct-22 20:33N 51°21' E 004°17'1 0.7
2014-Oct-22 19:33N 51°20' E 004°18'1 0.3
2014-Oct-22 16:27N 51°19' E 004°18'0 0.0
2014-Oct-22 13:30N 51°19' E 004°18'0 0.0
2014-Oct-22 00:21N 51°19' E 004°18'0 0.0
2014-Oct-21 21:20N 51°20' E 004°18'0 0.0
2014-Oct-21 06:26N 51°19' E 004°18'0 0.0
2014-Oct-21 03:29N 51°19' E 004°18'0 0.0
2014-Oct-21 02:23N 51°20' E 004°18'0 0.0
2014-Oct-20 19:23N 51°19' E 004°18'0 0.0
2014-Oct-20 18:32N 51°19' E 004°18'0 0.0
2014-Oct-20 17:26N 51°20' E 004°18'0 0.2
2014-Oct-20 15:33N 51°20' E 004°18'1 1.1
2014-Oct-20 14:33N 51°21' E 004°17'6 6.1
2014-Oct-20 13:33N 51°22' E 004°08'7 7.2
2014-Oct-20 12:33N 51°22' E 003°56'1010.2
2014-Oct-20 11:34N 51°26' E 003°41'9 8.8
2014-Oct-20 10:33N 51°25' E 003°27'1413.6
2014-Oct-20 09:33N 51°24' E 003°05'1413.5
2014-Oct-20 08:32N 51°22' E 002°43'1212.2
2014-Oct-20 07:33N 51°20' E 002°24'1212.4
2014-Oct-20 06:33N 51°14' E 002°07'1211.7
2014-Oct-20 05:33N 51°08' E 001°51'1111.0
2014-Oct-20 04:33N 51°00' E 001°39'1111.0
2014-Oct-20 03:33N 50°52' E 001°28'1211.6
2014-Oct-20 02:33N 50°42' E 001°19'8012.7
2014-Oct-19 20:16N 49°42' W 000°04'913.1
2014-Oct-19 19:33N 49°33' W 000°00'8 8.1
2014-Oct-19 18:33N 49°29' E 000°10'1 0.5
2014-Oct-19 17:24N 49°29' E 000°11'0 0.0
2014-Oct-19 15:12N 49°29' E 000°11'0 0.0
2014-Oct-19 14:30N 49°29' E 000°11'0 0.0
2014-Oct-19 13:24N 49°29' E 000°11'0 0.0
2014-Oct-19 12:33N 49°29' E 000°11'0 0.0
2014-Oct-19 11:18N 49°29' E 000°11'0 0.0
2014-Oct-19 09:21N 49°29' E 000°11'0 0.0
2014-Oct-19 08:30N 49°29' E 000°11'0 0.0
2014-Oct-19 07:18N 49°29' E 000°11'0 0.0
2014-Oct-19 06:30N 49°29' E 000°11'0 0.0
2014-Oct-19 05:30N 49°29' E 000°11'0 0.0
2014-Oct-19 04:30N 49°29' E 000°11'0 0.0
2014-Oct-19 03:24N 49°29' E 000°11'0 0.0
2014-Oct-19 02:12N 49°29' E 000°11'0 0.0
2014-Oct-19 01:30N 49°29' E 000°11'0 0.0
2014-Oct-19 00:30N 49°29' E 000°11'0 0.0
2014-Oct-18 23:18N 49°29' E 000°11'0 0.0
2014-Oct-18 21:29N 49°29' E 000°11'0 0.0
2014-Oct-18 20:17N 49°29' E 000°11'0 0.0
2014-Oct-18 19:32N 49°29' E 000°11'0 0.0
2014-Oct-18 18:29N 49°29' E 000°11'0 0.0
2014-Oct-18 17:05N 49°29' E 000°11'0 0.0
2014-Oct-18 16:29N 49°29' E 000°11'0 0.0
2014-Oct-18 14:26N 49°29' E 000°11'0 0.0
2014-Oct-18 13:29N 49°29' E 000°11'0 0.0
2014-Oct-18 12:17N 49°29' E 000°11'0 0.0
2014-Oct-18 11:29N 49°29' E 000°11'0 0.0
2014-Oct-18 10:05N 49°29' E 000°11'0 0.0
2014-Oct-18 09:29N 49°29' E 000°11'0 0.0
2014-Oct-18 08:11N 49°29' E 000°11'0 0.0
2014-Oct-18 07:32N 49°29' E 000°11'0 0.0
2014-Oct-18 06:23N 49°29' E 000°11'0 0.0
2014-Oct-18 05:32N 49°29' E 000°11'0 0.0
2014-Oct-18 04:29N 49°29' E 000°11'0 0.0
2014-Oct-18 03:29N 49°29' E 000°11'0 0.0
2014-Oct-18 02:23N 49°29' E 000°11'0 0.0
2014-Oct-18 01:11N 49°29' E 000°11'0 0.0
2014-Oct-18 00:26N 49°29' E 000°11'0 0.0
2014-Oct-17 23:29N 49°29' E 000°11'0 0.0
2014-Oct-17 22:23N 49°29' E 000°11'0 0.0
2014-Oct-17 21:29N 49°29' E 000°11'0 0.0
2014-Oct-17 20:23N 49°29' E 000°11'0 0.0
2014-Oct-17 19:32N 49°29' E 000°11'0 0.0
2014-Oct-17 17:17N 49°29' E 000°11'0 0.0
2014-Oct-17 16:23N 49°29' E 000°11'1 0.7
2014-Oct-17 15:33N 49°29' E 000°10'0 0.5
2014-Oct-17 14:34N 49°28' E 000°10'5 4.8
2014-Oct-17 13:33N 49°30' E 000°03'10 9.8
2014-Oct-17 12:33N 49°38' W 000°05'1312.7
2014-Oct-17 11:34N 49°49' E 000°04'3113.3
2014-Oct-17 09:13N 50°15' E 000°33'812.8
2014-Oct-17 08:33N 50°22' E 000°39'1312.6
2014-Oct-17 07:33N 50°35' E 000°38'1312.5
2014-Oct-17 06:33N 50°43' E 000°54'1412.0
2014-Oct-17 05:23N 50°52' E 001°11'1011.8
2014-Oct-17 04:32N 50°58' E 001°23'1212.5
2014-Oct-17 03:33N 51°08' E 001°35'1313.1
2014-Oct-17 02:34N 51°20' E 001°43'1413.6
2014-Oct-17 01:34N 51°33' E 001°44'1313.4
2014-Oct-17 00:33N 51°47' E 001°44'1313.0
2014-Oct-16 23:34N 51°60' E 001°46'1312.9
2014-Oct-16 22:34N 52°12' E 001°49'1212.4
2014-Oct-16 21:33N 52°25' E 001°53'1212.1
2014-Oct-16 20:34N 52°37' E 001°56'1111.0
2014-Oct-16 19:33N 52°47' E 001°50'1212.3
2014-Oct-16 18:33N 52°54' E 001°34'1212.4
2014-Oct-16 17:33N 53°00' E 001°15'3012.9
2014-Oct-16 15:13N 53°20' E 000°38'913.3
2014-Oct-16 14:33N 53°28' E 000°30'1211.6
2014-Oct-16 13:34N 53°32' E 000°13'1413.8
2014-Oct-16 12:33N 53°38' W 000°09'1 0.5
2014-Oct-16 11:31N 53°38' W 000°10'0 0.0
2014-Oct-16 10:31N 53°38' W 000°10'0 0.0
2014-Oct-16 09:31N 53°38' W 000°10'  

Dump ship's entire track history